Etusivu
METAR-TAF:

METAR-TAF

Lentoasemat :

Andøya, Norja

Leveyspiiri: 69-18N, Pituuspiiri: 016-09E, korkeus merenpinnasta: 1 m

Tämänhetkinen sää

Tämä raportti tehtiin 36 minuuttia sitten, kello 09.20 UTC
Tuuli 11 kn etelästä/kaakosta
Lämpötila 3°C
Kosteus 75%
Ilmanpaine 1016 hPa
Näkyvyys 10 km tai enemmän

METAR: ENAN 170920Z AUTO 15011KT 9999 OVC053/// 03/M01 Q1016

Aika: 10:56 (09:56 UTC)

Sääennuste

Ennuste voimassa 17. päivästä klo 06 UTC - 18. päivään klo 06 UTC
Tuuli 10 kn etelästä/kaakosta
Näkyvyys 10 km tai enemmän
Hajanaisia pilviä 5000 ft:n korkeudessa

TAF: ENAN 1706/1806 16010KT 9999 SCT050

Säähavainnot ja -ennusteet yli 4000 lentoasemalta (METAR- ja TAF-raportit).

Käytössä olevat sääasemat on merkitty karttaan keltaisilla ja punaisilla pisteillä.

Aseta hiiri pisteen päälle nähdäksesi sääaseman nimen.

Klikkaa sitten nähdäksesi säähavainnot ja -ennusteet.

Kartan vaihtaminen: klikkaa mustalla rastilla varustettuja vihreitä pisteitä, niin voit zoomata sisään; viivalla varustettua vihreää pistettä, niin voit zoomata ulos tai vihreitä nuolia, niin pääset viereisille kartoille.


METAR-TAF: